createdAt,value
2019-05-05T00:00:35.219Z,2.80
2019-05-05T00:03:36.712Z,2.62
2019-05-05T00:06:24.964Z,2.80
2019-05-05T00:09:10.489Z,2.37
2019-05-05T00:11:59.572Z,1.90
2019-05-05T00:14:58.583Z,2.13
2019-05-05T00:17:45.733Z,2.80
2019-05-05T00:20:34.387Z,2.33
2019-05-05T00:23:19.714Z,1.87
2019-05-05T00:26:08.772Z,1.90
2019-05-05T00:28:56.112Z,2.10
2019-05-05T00:31:42.832Z,2.40
2019-05-05T00:34:29.543Z,2.27
2019-05-05T00:37:17.033Z,2.60
2019-05-05T00:40:04.961Z,2.27
2019-05-05T00:42:50.748Z,2.43
2019-05-05T00:45:37.802Z,2.47
2019-05-05T00:48:29.176Z,2.27
2019-05-05T00:51:16.725Z,3.72
2019-05-05T00:54:04.470Z,3.62
2019-05-05T00:56:54.500Z,3.50
2019-05-05T00:59:40.730Z,2.67
2019-05-05T01:02:27.551Z,3.10
2019-05-05T01:05:14.951Z,3.20
2019-05-05T01:08:01.375Z,3.03
2019-05-05T01:10:48.977Z,2.70
2019-05-05T01:13:36.534Z,3.30
2019-05-05T01:16:24.734Z,3.10
2019-05-05T01:19:10.372Z,3.03
2019-05-05T01:21:57.574Z,4.10
2019-05-05T01:24:45.847Z,3.63
2019-05-05T01:27:31.406Z,3.70
2019-05-05T01:30:19.373Z,3.37
2019-05-05T01:33:25.086Z,3.23
2019-05-05T01:36:11.847Z,3.80
2019-05-05T01:38:58.505Z,3.17
2019-05-05T01:41:55.517Z,3.77
2019-05-05T01:44:44.636Z,3.67
2019-05-05T01:47:29.783Z,3.70
2019-05-05T01:50:20.911Z,3.50
2019-05-05T01:53:04.785Z,3.43
2019-05-05T01:55:50.775Z,3.70
2019-05-05T01:58:37.919Z,4.27
2019-05-05T02:01:24.802Z,5.45
2019-05-05T02:04:14.287Z,4.37
2019-05-05T02:06:59.160Z,4.03
2019-05-05T02:09:46.056Z,5.53
2019-05-05T02:12:35.251Z,4.33
2019-05-05T02:15:20.631Z,4.13
2019-05-05T02:18:07.572Z,4.10
2019-05-05T02:20:54.466Z,3.90
2019-05-05T02:23:41.630Z,3.30
2019-05-05T02:26:28.889Z,4.10
2019-05-05T02:29:28.135Z,3.90
2019-05-05T02:32:20.691Z,4.10
2019-05-05T02:35:08.021Z,4.95
2019-05-05T02:37:56.160Z,3.53
2019-05-05T02:40:45.200Z,3.73
2019-05-05T02:43:34.438Z,3.67
2019-05-05T02:46:35.727Z,3.43
2019-05-05T02:49:21.729Z,3.47
2019-05-05T02:52:15.170Z,4.50
2019-05-05T02:54:59.663Z,3.70
2019-05-05T02:57:46.446Z,3.43
2019-05-05T03:00:34.465Z,3.27
2019-05-05T03:03:20.563Z,3.00
2019-05-05T03:06:07.780Z,3.23
2019-05-05T03:09:01.899Z,3.03
2019-05-05T03:11:49.181Z,3.33
2019-05-05T03:14:36.398Z,3.20
2019-05-05T03:17:23.517Z,3.40
2019-05-05T03:20:09.975Z,3.33
2019-05-05T03:22:57.191Z,3.47
2019-05-05T03:25:46.663Z,3.13
2019-05-05T03:28:39.858Z,3.27
2019-05-05T03:31:26.865Z,3.07
2019-05-05T03:37:20.164Z,3.47
2019-05-05T03:40:09.835Z,3.40
2019-05-05T03:42:56.883Z,3.17
2019-05-05T03:45:49.773Z,3.87
2019-05-05T03:48:38.953Z,3.20
2019-05-05T03:51:34.533Z,3.50
2019-05-05T03:54:20.744Z,3.10
2019-05-05T03:57:10.235Z,3.90
2019-05-05T03:59:57.027Z,3.67
2019-05-05T04:02:46.842Z,3.53
2019-05-05T04:05:34.107Z,3.90
2019-05-05T04:08:20.954Z,3.27
2019-05-05T04:11:09.183Z,3.90
2019-05-05T04:13:55.902Z,3.60
2019-05-05T04:16:45.533Z,5.40
2019-05-05T04:19:45.076Z,4.10
2019-05-05T04:22:39.654Z,3.60
2019-05-05T04:25:28.981Z,3.97
2019-05-05T04:28:15.836Z,3.23
2019-05-05T04:31:05.875Z,3.80
2019-05-05T04:33:53.859Z,3.87
2019-05-05T04:36:40.009Z,4.30
2019-05-05T04:39:27.243Z,3.77
2019-05-05T04:42:16.282Z,3.97
2019-05-05T04:45:04.259Z,4.73
2019-05-05T04:51:02.236Z,5.15
2019-05-05T04:54:07.436Z,4.10
2019-05-05T04:56:55.369Z,4.27
2019-05-05T04:59:44.459Z,4.20
2019-05-05T05:05:54.953Z,4.00
2019-05-05T05:11:47.833Z,4.17
2019-05-05T05:21:03.840Z,3.77
2019-05-05T05:23:49.408Z,4.00
2019-05-05T05:26:39.040Z,4.50
2019-05-05T05:29:26.198Z,3.93
2019-05-05T05:32:15.622Z,3.63
2019-05-05T05:35:03.785Z,3.93
2019-05-05T05:37:50.322Z,3.73
2019-05-05T05:40:38.147Z,4.07
2019-05-05T05:43:25.503Z,3.87
2019-05-05T05:49:34.618Z,4.07
2019-05-05T05:52:21.119Z,4.20
2019-05-05T05:55:11.101Z,4.00
2019-05-05T05:58:06.304Z,3.17
2019-05-05T06:07:08.093Z,3.73
2019-05-05T06:09:55.009Z,3.53
2019-05-05T06:12:41.870Z,3.70
2019-05-05T06:15:29.011Z,3.57
2019-05-05T06:18:16.019Z,3.97
2019-05-05T06:21:04.521Z,3.80
2019-05-05T06:24:04.594Z,4.03
2019-05-05T06:30:13.794Z,3.77
2019-05-05T06:33:13.929Z,3.77
2019-05-05T06:36:00.735Z,3.67
2019-05-05T06:38:48.187Z,3.40
2019-05-05T06:41:43.465Z,3.60
2019-05-05T06:47:47.204Z,3.50
2019-05-05T06:50:31.704Z,4.00
2019-05-05T06:53:25.622Z,3.57
2019-05-05T06:56:14.391Z,3.30
2019-05-05T06:58:59.851Z,3.03
2019-05-05T07:01:46.870Z,3.60
2019-05-05T07:04:34.233Z,3.97
2019-05-05T07:07:20.976Z,3.17
2019-05-05T07:10:08.020Z,2.87
2019-05-05T07:12:55.171Z,3.33
2019-05-05T07:15:43.763Z,3.57
2019-05-05T07:18:44.637Z,3.40
2019-05-05T07:21:30.722Z,2.70
2019-05-05T07:24:24.654Z,3.30
2019-05-05T07:27:18.760Z,3.47
2019-05-05T07:30:06.878Z,2.90
2019-05-05T07:33:08.449Z,2.80
2019-05-05T07:36:01.474Z,3.30
2019-05-05T07:38:44.252Z,2.67
2019-05-05T07:41:30.486Z,3.03
2019-05-05T07:44:28.454Z,3.05
2019-05-05T07:50:18.967Z,2.92
2019-05-05T07:53:10.556Z,3.20
2019-05-05T07:55:44.462Z,2.90
2019-05-05T07:58:31.781Z,2.90
2019-05-05T08:01:18.607Z,2.78
2019-05-05T08:04:05.746Z,2.67
2019-05-05T08:06:53.831Z,3.05
2019-05-05T08:09:40.036Z,2.95
2019-05-05T08:12:26.922Z,2.90
2019-05-05T08:15:14.805Z,2.45
2019-05-05T08:18:00.719Z,2.90
2019-05-05T08:20:50.575Z,2.75
2019-05-05T08:23:44.751Z,2.50
2019-05-05T08:26:34.244Z,2.78
2019-05-05T08:29:30.654Z,3.12
2019-05-05T08:32:33.566Z,2.87
2019-05-05T08:35:19.210Z,2.30
2019-05-05T08:38:06.040Z,2.58
2019-05-05T08:40:54.367Z,2.37
2019-05-05T08:43:40.397Z,2.58
2019-05-05T08:46:27.764Z,2.47
2019-05-05T08:49:14.588Z,2.45
2019-05-05T08:52:03.836Z,2.70
2019-05-05T08:54:54.196Z,2.28
2019-05-05T08:57:40.405Z,1.90
2019-05-05T09:00:27.827Z,2.20
2019-05-05T09:03:14.513Z,1.77
2019-05-05T09:06:01.860Z,2.12
2019-05-05T09:08:48.605Z,2.00
2019-05-05T09:11:36.397Z,2.30
2019-05-05T09:14:23.995Z,2.22
2019-05-05T09:17:10.464Z,1.85
2019-05-05T09:19:58.199Z,2.20
2019-05-05T09:22:45.424Z,1.90
2019-05-05T09:25:54.119Z,1.80
2019-05-05T09:28:41.117Z,1.90
2019-05-05T09:31:27.925Z,1.80
2019-05-05T09:34:14.856Z,2.10
2019-05-05T09:37:03.668Z,1.70
2019-05-05T09:39:50.078Z,1.80
2019-05-05T09:42:37.169Z,1.80
2019-05-05T09:45:24.748Z,1.70
2019-05-05T09:48:19.048Z,1.50
2019-05-05T09:51:05.837Z,1.60
2019-05-05T09:53:54.925Z,1.60
2019-05-05T09:56:45.573Z,2.12
2019-05-05T09:59:34.450Z,1.85
2019-05-05T10:02:19.427Z,1.60
2019-05-05T10:05:06.392Z,1.70
2019-05-05T10:07:54.480Z,1.30
2019-05-05T10:10:41.164Z,1.60
2019-05-05T10:13:28.404Z,1.55
2019-05-05T10:16:15.362Z,1.20
2019-05-05T10:19:01.966Z,1.05
2019-05-05T10:21:49.182Z,1.00
2019-05-05T10:24:38.961Z,1.30
2019-05-05T10:27:26.337Z,1.12
2019-05-05T10:30:14.251Z,1.55
2019-05-05T10:33:00.653Z,1.30
2019-05-05T10:35:47.545Z,1.00
2019-05-05T10:38:34.332Z,1.00
2019-05-05T10:41:21.470Z,0.82
2019-05-05T10:44:08.599Z,0.80
2019-05-05T10:46:57.743Z,1.12
2019-05-05T10:49:44.140Z,1.10
2019-05-05T10:52:29.966Z,1.35
2019-05-05T10:55:16.741Z,1.20
2019-05-05T10:58:03.789Z,1.60
2019-05-05T11:00:50.482Z,0.70
2019-05-05T11:03:40.998Z,0.93
2019-05-05T11:06:27.983Z,1.15
2019-05-05T11:09:15.235Z,1.10
2019-05-05T11:12:02.351Z,1.00
2019-05-05T11:14:49.615Z,1.23
2019-05-05T11:17:36.651Z,0.90
2019-05-05T11:20:25.933Z,0.80
2019-05-05T11:23:14.890Z,0.85
2019-05-05T11:26:00.212Z,0.70
2019-05-05T11:28:47.140Z,1.20
2019-05-05T11:31:35.207Z,1.00
2019-05-05T11:34:24.666Z,0.80
2019-05-05T11:37:09.748Z,1.00
2019-05-05T11:39:57.555Z,1.62
2019-05-05T11:42:44.274Z,0.70
2019-05-05T11:45:31.498Z,0.90
2019-05-05T11:48:18.874Z,0.90
2019-05-05T11:51:05.939Z,0.80
2019-05-05T11:53:54.065Z,1.20
2019-05-05T11:56:39.508Z,1.02
2019-05-05T12:02:33.522Z,1.52
2019-05-05T12:05:19.424Z,1.00
2019-05-05T12:08:06.830Z,0.70
2019-05-05T12:10:56.490Z,1.00
2019-05-05T12:13:43.896Z,1.05
2019-05-05T12:16:30.051Z,0.93
2019-05-05T12:19:17.362Z,1.48
2019-05-05T12:22:04.440Z,0.90
2019-05-05T12:24:54.502Z,0.73
2019-05-05T12:27:59.527Z,0.90
2019-05-05T12:30:47.406Z,0.88
2019-05-05T12:33:37.687Z,0.75
2019-05-05T12:36:24.699Z,1.23
2019-05-05T12:39:17.452Z,0.90
2019-05-05T12:42:05.008Z,0.85
2019-05-05T12:44:53.735Z,0.93
2019-05-05T12:51:04.221Z,0.90
2019-05-05T12:53:50.434Z,1.00
2019-05-05T12:56:37.525Z,0.82
2019-05-05T12:59:24.982Z,0.90
2019-05-05T13:02:11.313Z,0.80
2019-05-05T13:04:58.222Z,0.90
2019-05-05T13:07:45.659Z,1.00
2019-05-05T13:10:33.721Z,1.30
2019-05-05T13:13:20.060Z,1.10
2019-05-05T13:16:08.204Z,0.93
2019-05-05T13:18:55.492Z,1.27
2019-05-05T13:21:58.289Z,0.90
2019-05-05T13:24:54.177Z,0.80
2019-05-05T13:27:44.236Z,0.90
2019-05-05T13:30:31.535Z,0.77
2019-05-05T13:33:18.239Z,0.90
2019-05-05T13:36:05.953Z,1.00
2019-05-05T13:38:54.670Z,1.40
2019-05-05T13:41:41.192Z,1.00
2019-05-05T13:44:46.199Z,1.05
2019-05-05T13:47:34.374Z,0.90
2019-05-05T13:50:25.772Z,1.00
2019-05-05T13:53:14.392Z,0.90
2019-05-05T13:56:11.286Z,1.15
2019-05-05T13:58:46.830Z,0.70
2019-05-05T14:01:34.281Z,0.80
2019-05-05T14:04:20.957Z,1.10
2019-05-05T14:07:08.112Z,1.00
2019-05-05T14:09:55.088Z,0.90
2019-05-05T14:12:43.783Z,1.00
2019-05-05T14:15:29.093Z,1.20
2019-05-05T14:18:15.940Z,1.15
2019-05-05T14:21:03.100Z,1.10
2019-05-05T14:27:04.677Z,1.25
2019-05-05T14:29:54.473Z,0.93
2019-05-05T14:32:41.178Z,1.02
2019-05-05T14:35:46.879Z,0.90
2019-05-05T14:41:55.945Z,1.10
2019-05-05T14:44:50.764Z,1.00
2019-05-05T14:47:37.502Z,1.12
2019-05-05T14:50:24.869Z,1.15
2019-05-05T14:53:12.050Z,1.30
2019-05-05T15:02:12.117Z,7.68
2019-05-05T15:04:59.238Z,1.05
2019-05-05T15:07:46.451Z,1.30
2019-05-05T15:10:47.877Z,1.48
2019-05-05T15:13:35.600Z,1.33
2019-05-05T15:16:24.344Z,1.20
2019-05-05T15:19:10.004Z,1.27
2019-05-05T15:21:56.846Z,1.45
2019-05-05T15:24:44.169Z,1.10
2019-05-05T15:27:30.981Z,1.15
2019-05-05T15:30:18.241Z,1.05
2019-05-05T15:36:11.176Z,0.95
2019-05-05T15:38:58.491Z,1.27
2019-05-05T15:41:45.825Z,0.93
2019-05-05T15:44:34.471Z,1.30
2019-05-05T15:47:19.874Z,1.75
2019-05-05T15:50:09.933Z,1.30
2019-05-05T15:52:56.712Z,0.88
2019-05-05T15:55:43.854Z,1.17
2019-05-05T15:58:30.844Z,1.17
2019-05-05T16:01:18.141Z,1.45
2019-05-05T16:04:06.243Z,0.98
2019-05-05T16:09:59.484Z,1.40
2019-05-05T16:12:46.820Z,1.20
2019-05-05T16:15:34.007Z,1.27
2019-05-05T16:18:21.036Z,2.20
2019-05-05T16:21:14.108Z,1.52
2019-05-05T16:24:03.788Z,1.45
2019-05-05T16:26:50.779Z,3.60
2019-05-05T16:29:37.948Z,1.70
2019-05-05T16:32:25.018Z,2.95
2019-05-05T16:35:11.731Z,4.60
2019-05-05T16:37:58.740Z,9.55
2019-05-05T16:40:45.667Z,1.73
2019-05-05T16:43:35.621Z,6.30
2019-05-05T16:49:28.992Z,2.60
2019-05-05T16:52:16.797Z,2.58
2019-05-05T16:55:04.563Z,7.70
2019-05-05T16:57:50.695Z,2.85
2019-05-05T17:00:37.427Z,4.30
2019-05-05T17:03:24.827Z,6.10
2019-05-05T17:06:13.904Z,2.50
2019-05-05T17:09:06.958Z,4.65
2019-05-05T17:12:08.935Z,3.20
2019-05-05T17:15:01.908Z,2.53
2019-05-05T17:17:53.922Z,2.50
2019-05-05T17:20:57.619Z,1.80
2019-05-05T17:23:44.713Z,1.62
2019-05-05T17:26:32.111Z,1.70
2019-05-05T17:29:19.267Z,1.60
2019-05-05T17:32:06.301Z,1.67
2019-05-05T17:34:54.164Z,1.25
2019-05-05T17:37:40.714Z,1.70
2019-05-05T17:43:34.182Z,1.50
2019-05-05T17:46:41.768Z,1.53
2019-05-05T17:49:29.177Z,2.03
2019-05-05T17:52:21.204Z,2.10
2019-05-05T17:55:27.657Z,1.67
2019-05-05T17:58:14.352Z,1.15
2019-05-05T18:01:03.793Z,1.50
2019-05-05T18:06:58.159Z,1.40
2019-05-05T18:09:54.372Z,1.77
2019-05-05T18:12:44.551Z,1.33
2019-05-05T18:15:49.498Z,1.50
2019-05-05T18:18:36.352Z,1.80
2019-05-05T18:21:23.742Z,1.52
2019-05-05T18:24:13.770Z,1.50
2019-05-05T18:27:02.056Z,1.60
2019-05-05T18:29:49.358Z,1.50
2019-05-05T18:32:36.168Z,1.42
2019-05-05T18:35:24.264Z,1.80
2019-05-05T18:38:13.683Z,2.10
2019-05-05T18:40:59.436Z,2.30
2019-05-05T18:43:55.886Z,3.00
2019-05-05T18:46:43.583Z,2.73
2019-05-05T18:49:31.325Z,2.50
2019-05-05T18:52:18.847Z,3.60
2019-05-05T18:55:05.864Z,4.90
2019-05-05T18:57:54.143Z,3.83
2019-05-05T19:00:57.898Z,3.77
2019-05-05T19:03:44.838Z,3.75
2019-05-05T19:06:35.560Z,3.57
2019-05-05T19:09:24.986Z,3.20
2019-05-05T19:12:10.587Z,3.12
2019-05-05T19:14:57.818Z,2.97
2019-05-05T19:17:48.086Z,2.73
2019-05-05T19:20:37.781Z,2.53
2019-05-05T19:23:24.555Z,2.47
2019-05-05T19:26:14.544Z,2.00
2019-05-05T19:29:04.828Z,2.43
2019-05-05T19:31:48.816Z,2.80
2019-05-05T19:34:35.915Z,3.00
2019-05-05T19:37:23.923Z,2.33
2019-05-05T19:40:09.349Z,2.40
2019-05-05T19:42:57.744Z,2.17
2019-05-05T19:45:44.971Z,1.97
2019-05-05T19:48:34.067Z,1.90
2019-05-05T19:51:23.963Z,2.10
2019-05-05T19:54:09.402Z,2.13
2019-05-05T20:00:05.107Z,1.90
2019-05-05T20:03:03.983Z,2.30
2019-05-05T20:05:43.112Z,1.90
2019-05-05T20:08:39.849Z,1.77
2019-05-05T20:14:21.908Z,2.00
2019-05-05T20:17:23.519Z,2.20
2019-05-05T20:20:10.564Z,1.70
2019-05-05T20:22:57.647Z,2.00
2019-05-05T20:25:44.981Z,1.90
2019-05-05T20:28:33.699Z,1.90
2019-05-05T20:31:18.589Z,1.87
2019-05-05T20:34:05.728Z,1.60
2019-05-05T20:36:55.195Z,2.03
2019-05-05T20:39:44.101Z,1.77
2019-05-05T20:45:36.387Z,2.30
2019-05-05T20:48:23.486Z,2.50
2019-05-05T20:51:10.530Z,2.30
2019-05-05T20:57:04.292Z,2.90
2019-05-05T20:59:57.893Z,2.70
2019-05-05T21:02:44.697Z,2.70
2019-05-05T21:05:31.799Z,2.20
2019-05-05T21:08:18.799Z,2.77
2019-05-05T21:11:05.692Z,2.13
2019-05-05T21:13:54.348Z,2.60
2019-05-05T21:16:39.639Z,2.90
2019-05-05T21:22:44.220Z,2.33
2019-05-05T21:38:02.150Z,2.63
2019-05-05T21:40:49.936Z,2.80
2019-05-05T21:43:37.077Z,2.97
2019-05-05T21:46:24.116Z,2.73
2019-05-05T21:49:13.473Z,2.83
2019-05-05T21:51:58.706Z,2.87
2019-05-05T21:54:48.207Z,2.80
2019-05-05T21:57:43.978Z,3.33
2019-05-05T22:00:47.001Z,3.53
2019-05-05T22:06:41.459Z,4.20
2019-05-05T22:09:29.903Z,3.80
2019-05-05T22:15:24.301Z,3.43
2019-05-05T22:18:11.328Z,3.20
2019-05-05T22:27:23.882Z,3.63
2019-05-05T22:30:10.714Z,4.28
2019-05-05T22:32:57.897Z,3.63
2019-05-05T22:35:59.304Z,4.30
2019-05-05T22:41:54.314Z,3.53
2019-05-05T22:44:39.701Z,4.10
2019-05-05T22:47:27.044Z,3.20
2019-05-05T22:50:14.748Z,3.50
2019-05-05T22:53:01.671Z,3.92
2019-05-05T22:55:49.084Z,3.50
2019-05-05T22:58:35.784Z,3.53
2019-05-05T23:01:24.131Z,2.80
2019-05-05T23:04:09.809Z,3.07
2019-05-05T23:06:59.396Z,2.83
2019-05-05T23:09:46.542Z,4.17
2019-05-05T23:12:35.060Z,3.83
2019-05-05T23:15:25.309Z,4.57
2019-05-05T23:18:25.466Z,3.10
2019-05-05T23:21:08.818Z,3.70
2019-05-05T23:24:14.346Z,3.10
2019-05-05T23:27:01.233Z,4.37
2019-05-05T23:29:48.163Z,3.17
2019-05-05T23:32:35.423Z,3.90
2019-05-05T23:35:23.912Z,3.70
2019-05-05T23:38:09.983Z,3.27
2019-05-05T23:40:57.916Z,4.70
2019-05-05T23:43:48.615Z,4.78
2019-05-05T23:46:35.568Z,4.20
2019-05-05T23:49:36.973Z,4.00
2019-05-05T23:52:24.227Z,4.70
2019-05-05T23:55:11.339Z,4.70
2019-05-05T23:57:58.517Z,4.10
